McComb, MS

9:15 AM CST on December 28, 2014 (GMT -0600)
Pinehurst | Change Station
CLOSE
Current Station
Personal Weather Station
Location: McComb, MS
Elevation: 442 ft
Nearby Weather Stations

Elev 442 ft 31.21 °N, 90.50 °W | Updated 45 seconds ago

Overcast
Overcast
50.8 °F
Feels Like 50.8 °F
N
0.0
Wind Variable Wind from NNE
Gusts 0.0 mph

Today
High -- | Low -- °F
--% Chance of Precip.
Yesterday
High -- | Low -- °F
Precip. -- in
6:59 AM 5:07 PM
Waxing Crescent, 48% visible
Pressure 30.12 in
Visibility 10.0 miles
Clouds Overcast 400 ft
Dew Point 50 °F
Humidity 99%
Rainfall 0.05 in
Snow Depth Not available.
UV 0.0 out of 12
Pollen .60 out of 12
Air Quality Not available.
Flu Activity Not available.
METAR KMCB 281453Z AUTO 02007KT 10SM OVC004 11/10 A3013 RMK AO2 SLP200 T01110100 51016

More Conditions Fewer Conditions

Pressure 30.12 in
Visibility 10.0 miles
Clouds Overcast 400 ft
Dew Point 50 °F
Humidity 99%
Rainfall 0.05 in
Snow Depth Not available.
UV 0.0 out of 12
Pollen .60 out of 12
Air Quality Not available.
Flu Activity Not available.
METAR KMCB 281453Z AUTO 02007KT 10SM OVC004 11/10 A3013 RMK AO2 SLP200 T01110100 51016

More Conditions Fewer Conditions

10-Day Weather Forecast

Almanac

Astronomy

Dec. 28, 2014 Rise Set
Actual Time
Civil Twilight
Nautical Twilight
Astronomical Twilight
Moon
Length of Visible Light
Length of Day
Tomorrow will be .
, % of the Moon is Illuminated

Today's Extremes

State Highs State Lows

Community

WunderPhotos

Upload Photos

1,781,301 photos uploaded!

WunderBlogs® & News

Nearby

Air Quality

  Air Quality AQ Index Pollutant
Not available.

Snow Depth

Station Depth Elevation

Earthquake Activity

City Distance Mag. Time & Date
Minimum magnitude displayed is 2.5.

Coastal Water Temperatures

Place Temperature

Nearby Weather Stations